Airfield :
LOGIN :

Register | Disclaimer

   EN    FR    IT 

 










Legend :    VFR   Marginal VFR   IFR   Intensive IFR   Very Intensive IFR
Visi :
Ceiling :
>= 8 km
>= 3000ft
5 to 8 km
1000 to 3000 ft
1500m to 5 km
500 to 1000 ft
800 to 1500m
200 to 500 ft
< 800m
< 200 ft
Symbols :   Thunderstorms  Fog  Heavy snow  Heavy precipitations  Wind > 20 kt
SIGMETs :     Misc.  Thunderstorms  Icing  Turbulence  Mountain Waves  Volcanic Ashes






- Airport Elevation : 17 ft
- IATA code : CPH


EKCH - København - Kastrup (Copenhagen)

CURRENT METAR :
  • 180820Z AUTO 36009KT 9999 NCD 08/00 Q1024 NOSIG

EXPIRED METARs :
  • 180750Z AUTO 36008KT 9999 NCD 08/00 Q1024 NOSIG
  • 180720Z AUTO 01008KT 9999 NCD 07/00 Q1024 NOSIG
  • 180650Z AUTO 02007KT 9999 NCD 07/00 Q1024 NOSIG
  • 180620Z AUTO 02007KT 9999 NCD 07/00 Q1024 NOSIG
  • 180550Z AUTO 02007KT 9999 NCD 06/M00 Q1024 NOSIG

TAF TAF EKCH
Valid from the 18 at 06:00 until the 19 at 06:00 UTC


180509Z 1806/1906 02008KT CAVOK
TEMPO 1814/1820 10010KT



MET'MAP, your aeronautical weather chart ! - Copyright ORBIFLY December 2007 - Disclaimer

ORBIFLY MET'MAP TEAM :

Programming & Development : Alexandra Zaïnal
Concept & original design : Baudouin d'Aumeries
Assistance for programming : Marc-Olivier Méhu
Technical & hardware support : Manuel Goepfert

Contact : metmap@orbifly.com




SOURCES & CREDITS :

   NOAA